sensor_id;sensor_type;location;lat;lon;timestamp;P1;durP1;ratioP1;P2;durP2;ratioP2
45564;SDS011;31280;40.408;17.282;2023-02-01T00:01:44;9.20;;;2.10;;
45564;SDS011;31280;40.408;17.282;2023-02-01T00:04:09;4.95;;;1.77;;
45564;SDS011;31280;40.408;17.282;2023-02-01T00:06:36;8.00;;;2.00;;
45564;SDS011;31280;40.408;17.282;2023-02-01T00:09:01;4.07;;;1.98;;
45564;SDS011;31280;40.408;17.282;2023-02-01T00:11:27;9.55;;;2.05;;
45564;SDS011;31280;40.408;17.282;2023-02-01T00:13:53;2.72;;;1.20;;
45564;SDS011;31280;40.408;17.282;2023-02-01T00:16:20;4.43;;;1.55;;
45564;SDS011;31280;40.408;17.282;2023-02-01T00:18:47;3.60;;;2.00;;
45564;SDS011;31280;40.408;17.282;2023-02-01T00:21:15;3.55;;;1.33;;
45564;SDS011;31280;40.408;17.282;2023-02-01T00:23:42;3.38;;;1.45;;
45564;SDS011;31280;40.408;17.282;2023-02-01T00:26:11;1.80;;;1.20;;
45564;SDS011;31280;40.408;17.282;2023-02-01T00:28:40;5.05;;;1.30;;
45564;SDS011;31280;40.408;17.282;2023-02-01T00:31:06;2.58;;;1.23;;
45564;SDS011;31280;40.408;17.282;2023-02-01T00:33:31;2.63;;;1.60;;
45564;SDS011;31280;40.408;17.282;2023-02-01T00:35:58;4.43;;;1.08;;
45564;SDS011;31280;40.408;17.282;2023-02-01T00:38:25;3.47;;;1.20;;
45564;SDS011;31280;40.408;17.282;2023-02-01T00:40:52;6.22;;;1.35;;
45564;SDS011;31280;40.408;17.282;2023-02-01T00:43:17;4.18;;;1.10;;
45564;SDS011;31280;40.408;17.282;2023-02-01T00:45:44;1.85;;;1.23;;
45564;SDS011;31280;40.408;17.282;2023-02-01T00:48:11;3.13;;;1.20;;
45564;SDS011;31280;40.408;17.282;2023-02-01T00:50:40;2.17;;;1.20;;
45564;SDS011;31280;40.408;17.282;2023-02-01T00:53:10;5.82;;;1.40;;
45564;SDS011;31280;40.408;17.282;2023-02-01T00:55:36;3.88;;;1.23;;
45564;SDS011;31280;40.408;17.282;2023-02-01T00:58:02;2.42;;;1.30;;
45564;SDS011;31280;40.408;17.282;2023-02-01T01:00:33;2.13;;;1.20;;
45564;SDS011;31280;40.408;17.282;2023-02-01T01:02:59;2.03;;;1.20;;
45564;SDS011;31280;40.408;17.282;2023-02-01T01:05:24;2.47;;;1.15;;
45564;SDS011;31280;40.408;17.282;2023-02-01T01:07:53;11.55;;;1.90;;
45564;SDS011;31280;40.408;17.282;2023-02-01T01:10:19;2.55;;;1.15;;
45564;SDS011;31280;40.408;17.282;2023-02-01T01:12:44;4.25;;;1.20;;
45564;SDS011;31280;40.408;17.282;2023-02-01T01:15:10;2.83;;;1.25;;
45564;SDS011;31280;40.408;17.282;2023-02-01T01:17:36;2.42;;;1.05;;
45564;SDS011;31280;40.408;17.282;2023-02-01T01:20:02;2.45;;;1.20;;
45564;SDS011;31280;40.408;17.282;2023-02-01T01:22:28;4.80;;;1.30;;
45564;SDS011;31280;40.408;17.282;2023-02-01T01:24:54;3.47;;;1.48;;
45564;SDS011;31280;40.408;17.282;2023-02-01T01:27:20;1.73;;;1.05;;
45564;SDS011;31280;40.408;17.282;2023-02-01T01:29:49;2.10;;;1.10;;
45564;SDS011;31280;40.408;17.282;2023-02-01T01:32:15;1.90;;;1.52;;
45564;SDS011;31280;40.408;17.282;2023-02-01T01:34:41;2.92;;;1.10;;
45564;SDS011;31280;40.408;17.282;2023-02-01T01:37:06;1.83;;;1.00;;
45564;SDS011;31280;40.408;17.282;2023-02-01T01:39:32;1.98;;;0.80;;
45564;SDS011;31280;40.408;17.282;2023-02-01T01:41:58;1.77;;;1.10;;
45564;SDS011;31280;40.408;17.282;2023-02-01T01:47:20;1.38;;;0.95;;
45564;SDS011;31280;40.408;17.282;2023-02-01T01:49:45;2.85;;;1.58;;
45564;SDS011;31280;40.408;17.282;2023-02-01T01:52:11;2.22;;;1.10;;
45564;SDS011;31280;40.408;17.282;2023-02-01T01:54:38;2.28;;;1.10;;
45564;SDS011;31280;40.408;17.282;2023-02-01T01:57:09;1.52;;;1.10;;
45564;SDS011;31280;40.408;17.282;2023-02-01T01:59:40;2.75;;;1.50;;
45564;SDS011;31280;40.408;17.282;2023-02-01T02:02:08;1.27;;;1.05;;
45564;SDS011;31280;40.408;17.282;2023-02-01T02:04:35;4.07;;;1.17;;
45564;SDS011;31280;40.408;17.282;2023-02-01T02:07:04;3.88;;;1.00;;
45564;SDS011;31280;40.408;17.282;2023-02-01T02:09:33;2.65;;;1.30;;
45564;SDS011;31280;40.408;17.282;2023-02-01T02:11:59;3.10;;;1.10;;
45564;SDS011;31280;40.408;17.282;2023-02-01T02:14:24;3.72;;;1.00;;
45564;SDS011;31280;40.408;17.282;2023-02-01T02:28:05;1.55;;;1.17;;
45564;SDS011;31280;40.408;17.282;2023-02-01T02:44:54;2.10;;;1.10;;
45564;SDS011;31280;40.408;17.282;2023-02-01T02:47:45;2.25;;;1.20;;
45564;SDS011;31280;40.408;17.282;2023-02-01T02:50:18;2.85;;;1.20;;
45564;SDS011;31280;40.408;17.282;2023-02-01T02:56:26;3.13;;;1.30;;
45564;SDS011;31280;40.408;17.282;2023-02-01T02:59:13;1.80;;;1.08;;
45564;SDS011;31280;40.408;17.282;2023-02-01T03:02:01;1.92;;;1.42;;
45564;SDS011;31280;40.408;17.282;2023-02-01T03:04:46;2.30;;;1.23;;
45564;SDS011;31280;40.408;17.282;2023-02-01T03:07:42;2.50;;;1.27;;
45564;SDS011;31280;40.408;17.282;2023-02-01T03:12:47;1.70;;;1.20;;
45564;SDS011;31280;40.408;17.282;2023-02-01T03:16:04;3.60;;;1.60;;
45564;SDS011;31280;40.408;17.282;2023-02-01T03:20:59;6.05;;;2.63;;
45564;SDS011;31280;40.408;17.282;2023-02-01T03:23:29;5.70;;;1.38;;
45564;SDS011;31280;40.408;17.282;2023-02-01T03:25:59;8.88;;;1.63;;
45564;SDS011;31280;40.408;17.282;2023-02-01T03:28:27;4.60;;;1.55;;
45564;SDS011;31280;40.408;17.282;2023-02-01T03:30:55;3.63;;;1.48;;
45564;SDS011;31280;40.408;17.282;2023-02-01T03:33:21;3.75;;;1.30;;
45564;SDS011;31280;40.408;17.282;2023-02-01T03:38:50;5.65;;;1.85;;
45564;SDS011;31280;40.408;17.282;2023-02-01T03:41:57;3.60;;;2.03;;
45564;SDS011;31280;40.408;17.282;2023-02-01T03:44:26;3.65;;;1.80;;
45564;SDS011;31280;40.408;17.282;2023-02-01T03:49:46;3.80;;;1.58;;
45564;SDS011;31280;40.408;17.282;2023-02-01T03:52:27;4.95;;;1.70;;
45564;SDS011;31280;40.408;17.282;2023-02-01T03:54:55;3.28;;;1.67;;
45564;SDS011;31280;40.408;17.282;2023-02-01T03:57:24;5.95;;;1.83;;
45564;SDS011;31280;40.408;17.282;2023-02-01T03:59:54;4.25;;;1.48;;
45564;SDS011;31280;40.408;17.282;2023-02-01T04:02:33;7.15;;;1.90;;
45564;SDS011;31280;40.408;17.282;2023-02-01T04:04:59;4.53;;;1.95;;
45564;SDS011;31280;40.408;17.282;2023-02-01T04:07:25;2.97;;;1.50;;
45564;SDS011;31280;40.408;17.282;2023-02-01T04:09:50;3.53;;;1.70;;
45564;SDS011;31280;40.408;17.282;2023-02-01T04:12:16;5.13;;;1.70;;
45564;SDS011;31280;40.408;17.282;2023-02-01T04:14:42;4.13;;;1.73;;
45564;SDS011;31280;40.408;17.282;2023-02-01T04:17:08;3.78;;;1.20;;
45564;SDS011;31280;40.408;17.282;2023-02-01T04:19:33;3.17;;;1.70;;
45564;SDS011;31280;40.408;17.282;2023-02-01T04:21:59;4.28;;;1.63;;
45564;SDS011;31280;40.408;17.282;2023-02-01T04:24:24;6.68;;;2.15;;
45564;SDS011;31280;40.408;17.282;2023-02-01T04:26:50;2.25;;;1.50;;
45564;SDS011;31280;40.408;17.282;2023-02-01T04:29:16;3.40;;;1.90;;
45564;SDS011;31280;40.408;17.282;2023-02-01T04:31:41;2.65;;;1.50;;
45564;SDS011;31280;40.408;17.282;2023-02-01T04:34:07;3.70;;;1.50;;
45564;SDS011;31280;40.408;17.282;2023-02-01T04:36:33;2.80;;;1.45;;
45564;SDS011;31280;40.408;17.282;2023-02-01T04:38:59;6.45;;;2.25;;
45564;SDS011;31280;40.408;17.282;2023-02-01T04:41:25;6.70;;;1.45;;
45564;SDS011;31280;40.408;17.282;2023-02-01T04:43:50;3.58;;;1.52;;
45564;SDS011;31280;40.408;17.282;2023-02-01T04:46:17;4.97;;;1.45;;
45564;SDS011;31280;40.408;17.282;2023-02-01T04:48:43;3.70;;;1.50;;
45564;SDS011;31280;40.408;17.282;2023-02-01T04:51:09;4.60;;;1.30;;
45564;SDS011;31280;40.408;17.282;2023-02-01T04:53:36;2.92;;;1.50;;
45564;SDS011;31280;40.408;17.282;2023-02-01T04:56:02;6.13;;;1.60;;
45564;SDS011;31280;40.408;17.282;2023-02-01T04:58:27;5.18;;;2.10;;
45564;SDS011;31280;40.408;17.282;2023-02-01T05:00:53;4.90;;;1.33;;
45564;SDS011;31280;40.408;17.282;2023-02-01T05:03:19;2.38;;;1.30;;
45564;SDS011;31280;40.408;17.282;2023-02-01T05:05:46;3.15;;;1.52;;
45564;SDS011;31280;40.408;17.282;2023-02-01T05:08:13;4.72;;;1.50;;
45564;SDS011;31280;40.408;17.282;2023-02-01T05:10:39;3.92;;;1.50;;
45564;SDS011;31280;40.408;17.282;2023-02-01T05:13:04;3.25;;;1.55;;
45564;SDS011;31280;40.408;17.282;2023-02-01T05:18:15;5.20;;;1.90;;
45564;SDS011;31280;40.408;17.282;2023-02-01T05:20:40;4.18;;;2.53;;
45564;SDS011;31280;40.408;17.282;2023-02-01T05:23:06;4.15;;;1.80;;
45564;SDS011;31280;40.408;17.282;2023-02-01T05:25:32;6.75;;;2.13;;
45564;SDS011;31280;40.408;17.282;2023-02-01T05:27:58;7.53;;;2.65;;
45564;SDS011;31280;40.408;17.282;2023-02-01T05:30:23;6.07;;;3.45;;
45564;SDS011;31280;40.408;17.282;2023-02-01T05:32:50;5.45;;;3.05;;
45564;SDS011;31280;40.408;17.282;2023-02-01T05:35:16;7.65;;;3.30;;
45564;SDS011;31280;40.408;17.282;2023-02-01T05:37:42;7.93;;;2.90;;
45564;SDS011;31280;40.408;17.282;2023-02-01T05:40:08;6.35;;;2.90;;
45564;SDS011;31280;40.408;17.282;2023-02-01T05:42:34;6.00;;;2.72;;
45564;SDS011;31280;40.408;17.282;2023-02-01T05:45:00;7.00;;;2.58;;
45564;SDS011;31280;40.408;17.282;2023-02-01T05:47:25;5.10;;;2.55;;
45564;SDS011;31280;40.408;17.282;2023-02-01T05:49:51;6.75;;;2.85;;
45564;SDS011;31280;40.408;17.282;2023-02-01T05:52:19;7.68;;;2.13;;
45564;SDS011;31280;40.408;17.282;2023-02-01T05:54:46;7.38;;;2.28;;
45564;SDS011;31280;40.408;17.282;2023-02-01T05:57:13;5.30;;;2.25;;
45564;SDS011;31280;40.408;17.282;2023-02-01T05:59:39;4.38;;;2.00;;
45564;SDS011;31280;40.408;17.282;2023-02-01T06:02:10;3.53;;;1.75;;
45564;SDS011;31280;40.408;17.282;2023-02-01T06:04:37;6.78;;;2.40;;
45564;SDS011;31280;40.408;17.282;2023-02-01T06:07:03;4.20;;;1.63;;
45564;SDS011;31280;40.408;17.282;2023-02-01T06:09:29;5.57;;;1.85;;
45564;SDS011;31280;40.408;17.282;2023-02-01T06:11:55;2.40;;;1.48;;
45564;SDS011;31280;40.408;17.282;2023-02-01T06:14:20;3.78;;;2.00;;
45564;SDS011;31280;40.408;17.282;2023-02-01T06:16:46;3.80;;;1.60;;
45564;SDS011;31280;40.408;17.282;2023-02-01T06:19:12;5.35;;;1.90;;
45564;SDS011;31280;40.408;17.282;2023-02-01T06:21:38;6.40;;;2.20;;
45564;SDS011;31280;40.408;17.282;2023-02-01T06:24:04;5.38;;;2.22;;
45564;SDS011;31280;40.408;17.282;2023-02-01T06:26:31;6.45;;;2.65;;
45564;SDS011;31280;40.408;17.282;2023-02-01T06:28:58;7.43;;;2.92;;
45564;SDS011;31280;40.408;17.282;2023-02-01T06:31:23;12.48;;;2.88;;
45564;SDS011;31280;40.408;17.282;2023-02-01T06:33:51;4.70;;;2.40;;
45564;SDS011;31280;40.408;17.282;2023-02-01T06:36:16;5.28;;;2.50;;
45564;SDS011;31280;40.408;17.282;2023-02-01T06:38:44;7.03;;;3.70;;
45564;SDS011;31280;40.408;17.282;2023-02-01T06:41:10;11.38;;;4.28;;
45564;SDS011;31280;40.408;17.282;2023-02-01T06:43:36;12.52;;;5.20;;
45564;SDS011;31280;40.408;17.282;2023-02-01T06:46:03;10.82;;;5.93;;
45564;SDS011;31280;40.408;17.282;2023-02-01T06:48:31;14.05;;;5.03;;
45564;SDS011;31280;40.408;17.282;2023-02-01T06:50:57;14.13;;;4.72;;
45564;SDS011;31280;40.408;17.282;2023-02-01T06:53:23;17.67;;;5.38;;
45564;SDS011;31280;40.408;17.282;2023-02-01T06:55:53;10.48;;;5.55;;
45564;SDS011;31280;40.408;17.282;2023-02-01T06:58:20;13.02;;;5.68;;
45564;SDS011;31280;40.408;17.282;2023-02-01T07:00:46;21.20;;;6.43;;
45564;SDS011;31280;40.408;17.282;2023-02-01T07:03:12;14.45;;;5.95;;
45564;SDS011;31280;40.408;17.282;2023-02-01T07:05:37;15.95;;;6.53;;
45564;SDS011;31280;40.408;17.282;2023-02-01T07:08:03;13.50;;;5.78;;
45564;SDS011;31280;40.408;17.282;2023-02-01T07:10:29;12.65;;;5.05;;
45564;SDS011;31280;40.408;17.282;2023-02-01T07:12:57;14.43;;;5.78;;
45564;SDS011;31280;40.408;17.282;2023-02-01T07:15:23;15.88;;;6.05;;
45564;SDS011;31280;40.408;17.282;2023-02-01T07:17:49;20.17;;;6.57;;
45564;SDS011;31280;40.408;17.282;2023-02-01T07:20:15;18.67;;;6.35;;
45564;SDS011;31280;40.408;17.282;2023-02-01T07:22:41;30.23;;;8.27;;
45564;SDS011;31280;40.408;17.282;2023-02-01T07:25:07;21.02;;;7.25;;
45564;SDS011;31280;40.408;17.282;2023-02-01T07:27:34;16.40;;;7.03;;
45564;SDS011;31280;40.408;17.282;2023-02-01T07:30:00;13.60;;;5.57;;
45564;SDS011;31280;40.408;17.282;2023-02-01T07:32:27;9.68;;;5.47;;
45564;SDS011;31280;40.408;17.282;2023-02-01T07:34:53;12.65;;;5.43;;
45564;SDS011;31280;40.408;17.282;2023-02-01T07:37:19;15.90;;;4.57;;
45564;SDS011;31280;40.408;17.282;2023-02-01T07:39:45;10.30;;;4.20;;
45564;SDS011;31280;40.408;17.282;2023-02-01T07:42:11;14.35;;;4.20;;
45564;SDS011;31280;40.408;17.282;2023-02-01T07:44:36;11.93;;;3.88;;
45564;SDS011;31280;40.408;17.282;2023-02-01T07:47:02;10.32;;;4.35;;
45564;SDS011;31280;40.408;17.282;2023-02-01T07:49:28;4.82;;;2.67;;
45564;SDS011;31280;40.408;17.282;2023-02-01T07:51:53;8.57;;;3.40;;
45564;SDS011;31280;40.408;17.282;2023-02-01T07:54:19;6.22;;;2.50;;
45564;SDS011;31280;40.408;17.282;2023-02-01T07:56:44;3.95;;;2.38;;
45564;SDS011;31280;40.408;17.282;2023-02-01T07:59:10;10.35;;;3.10;;
45564;SDS011;31280;40.408;17.282;2023-02-01T08:01:37;5.43;;;2.97;;
45564;SDS011;31280;40.408;17.282;2023-02-01T08:04:03;6.55;;;2.83;;
45564;SDS011;31280;40.408;17.282;2023-02-01T08:06:30;5.32;;;2.65;;
45564;SDS011;31280;40.408;17.282;2023-02-01T08:08:57;4.15;;;1.92;;
45564;SDS011;31280;40.408;17.282;2023-02-01T08:11:23;3.05;;;1.85;;
45564;SDS011;31280;40.408;17.282;2023-02-01T08:13:50;5.32;;;2.10;;
45564;SDS011;31280;40.408;17.282;2023-02-01T08:16:16;12.32;;;2.55;;
45564;SDS011;31280;40.408;17.282;2023-02-01T08:18:44;20.80;;;3.50;;
45564;SDS011;31280;40.408;17.282;2023-02-01T08:21:11;19.00;;;3.45;;
45564;SDS011;31280;40.408;17.282;2023-02-01T08:23:39;25.30;;;5.15;;
45564;SDS011;31280;40.408;17.282;2023-02-01T08:26:13;8.77;;;3.22;;
45564;SDS011;31280;40.408;17.282;2023-02-01T08:28:42;7.90;;;3.58;;
45564;SDS011;31280;40.408;17.282;2023-02-01T08:31:11;38.53;;;8.05;;
45564;SDS011;31280;40.408;17.282;2023-02-01T08:33:40;11.20;;;3.25;;
45564;SDS011;31280;40.408;17.282;2023-02-01T08:36:08;11.48;;;2.90;;
45564;SDS011;31280;40.408;17.282;2023-02-01T08:38:35;9.80;;;2.20;;
45564;SDS011;31280;40.408;17.282;2023-02-01T08:41:06;6.50;;;3.35;;
45564;SDS011;31280;40.408;17.282;2023-02-01T08:43:33;15.32;;;3.72;;
45564;SDS011;31280;40.408;17.282;2023-02-01T08:46:00;6.45;;;2.72;;
45564;SDS011;31280;40.408;17.282;2023-02-01T08:48:25;7.82;;;2.55;;
45564;SDS011;31280;40.408;17.282;2023-02-01T08:50:51;20.58;;;9.27;;
45564;SDS011;31280;40.408;17.282;2023-02-01T08:53:17;36.33;;;10.70;;
45564;SDS011;31280;40.408;17.282;2023-02-01T08:55:42;12.07;;;6.13;;
45564;SDS011;31280;40.408;17.282;2023-02-01T08:58:08;19.17;;;4.55;;
45564;SDS011;31280;40.408;17.282;2023-02-01T09:00:34;5.93;;;3.10;;
45564;SDS011;31280;40.408;17.282;2023-02-01T09:03:00;9.35;;;2.60;;
45564;SDS011;31280;40.408;17.282;2023-02-01T09:05:25;6.43;;;3.97;;
45564;SDS011;31280;40.408;17.282;2023-02-01T09:07:52;9.25;;;5.70;;
45564;SDS011;31280;40.408;17.282;2023-02-01T09:10:18;7.57;;;4.03;;
45564;SDS011;31280;40.408;17.282;2023-02-01T09:12:43;55.53;;;9.60;;
45564;SDS011;31280;40.408;17.282;2023-02-01T09:15:09;33.97;;;7.90;;
45564;SDS011;31280;40.408;17.282;2023-02-01T09:17:35;15.10;;;5.47;;
45564;SDS011;31280;40.408;17.282;2023-02-01T09:20:02;21.85;;;4.80;;
45564;SDS011;31280;40.408;17.282;2023-02-01T09:22:28;15.15;;;3.60;;
45564;SDS011;31280;40.408;17.282;2023-02-01T09:24:54;6.38;;;2.70;;
45564;SDS011;31280;40.408;17.282;2023-02-01T09:27:20;23.98;;;3.80;;
45564;SDS011;31280;40.408;17.282;2023-02-01T09:29:46;4.13;;;2.80;;
45564;SDS011;31280;40.408;17.282;2023-02-01T09:32:18;8.80;;;4.15;;
45564;SDS011;31280;40.408;17.282;2023-02-01T09:34:45;13.88;;;5.97;;
45564;SDS011;31280;40.408;17.282;2023-02-01T09:37:10;12.38;;;4.75;;
45564;SDS011;31280;40.408;17.282;2023-02-01T09:39:36;8.15;;;3.50;;
45564;SDS011;31280;40.408;17.282;2023-02-01T09:47:28;12.65;;;2.00;;
45564;SDS011;31280;40.408;17.282;2023-02-01T09:53:00;8.50;;;2.45;;
45564;SDS011;31280;40.408;17.282;2023-02-01T09:58:09;19.92;;;6.15;;
45564;SDS011;31280;40.408;17.282;2023-02-01T10:00:46;6.82;;;3.15;;
45564;SDS011;31280;40.408;17.282;2023-02-01T10:03:20;5.13;;;2.72;;
45564;SDS011;31280;40.408;17.282;2023-02-01T10:08:31;17.17;;;3.55;;
45564;SDS011;31280;40.408;17.282;2023-02-01T10:11:00;3.17;;;1.95;;
45564;SDS011;31280;40.408;17.282;2023-02-01T10:13:51;3.65;;;2.08;;
45564;SDS011;31280;40.408;17.282;2023-02-01T10:16:22;3.47;;;2.15;;
45564;SDS011;31280;40.408;17.282;2023-02-01T10:24:27;5.93;;;3.13;;
45564;SDS011;31280;40.408;17.282;2023-02-01T10:27:13;7.25;;;3.25;;
45564;SDS011;31280;40.408;17.282;2023-02-01T10:29:48;3.63;;;1.98;;
45564;SDS011;31280;40.408;17.282;2023-02-01T10:32:23;10.45;;;3.72;;
45564;SDS011;31280;40.408;17.282;2023-02-01T10:35:02;7.80;;;3.35;;
45564;SDS011;31280;40.408;17.282;2023-02-01T10:37:37;3.95;;;2.05;;
45564;SDS011;31280;40.408;17.282;2023-02-01T10:40:17;3.63;;;2.13;;
45564;SDS011;31280;40.408;17.282;2023-02-01T10:42:48;3.47;;;1.80;;
45564;SDS011;31280;40.408;17.282;2023-02-01T10:45:20;3.08;;;1.70;;
45564;SDS011;31280;40.408;17.282;2023-02-01T10:47:49;7.55;;;2.10;;
45564;SDS011;31280;40.408;17.282;2023-02-01T10:53:18;11.30;;;3.30;;
45564;SDS011;31280;40.408;17.282;2023-02-01T10:56:01;5.15;;;2.75;;
45564;SDS011;31280;40.408;17.282;2023-02-01T10:58:32;7.90;;;3.78;;
45564;SDS011;31280;40.408;17.282;2023-02-01T11:01:08;4.90;;;2.78;;
45564;SDS011;31280;40.408;17.282;2023-02-01T11:03:39;5.47;;;2.20;;
45564;SDS011;31280;40.408;17.282;2023-02-01T11:08:47;9.02;;;2.90;;
45564;SDS011;31280;40.408;17.282;2023-02-01T11:11:16;2.22;;;1.50;;
45564;SDS011;31280;40.408;17.282;2023-02-01T11:13:42;3.15;;;1.70;;
45564;SDS011;31280;40.408;17.282;2023-02-01T11:16:11;3.35;;;1.40;;
45564;SDS011;31280;40.408;17.282;2023-02-01T11:18:39;3.45;;;1.38;;
45564;SDS011;31280;40.408;17.282;2023-02-01T11:21:06;3.60;;;1.77;;
45564;SDS011;31280;40.408;17.282;2023-02-01T11:23:33;3.40;;;2.30;;
45564;SDS011;31280;40.408;17.282;2023-02-01T11:26:23;3.50;;;2.30;;
45564;SDS011;31280;40.408;17.282;2023-02-01T11:28:52;4.55;;;2.30;;
45564;SDS011;31280;40.408;17.282;2023-02-01T11:31:29;6.57;;;2.58;;
45564;SDS011;31280;40.408;17.282;2023-02-01T11:34:18;4.68;;;2.00;;
45564;SDS011;31280;40.408;17.282;2023-02-01T11:36:48;3.67;;;2.00;;
45564;SDS011;31280;40.408;17.282;2023-02-01T11:44:21;5.80;;;2.55;;
45564;SDS011;31280;40.408;17.282;2023-02-01T11:46:51;5.13;;;2.60;;
45564;SDS011;31280;40.408;17.282;2023-02-01T11:52:01;4.60;;;2.03;;
45564;SDS011;31280;40.408;17.282;2023-02-01T11:54:55;1.75;;;1.40;;
45564;SDS011;31280;40.408;17.282;2023-02-01T12:11:43;4.22;;;1.40;;
45564;SDS011;31280;40.408;17.282;2023-02-01T12:39:38;3.65;;;1.40;;
45564;SDS011;31280;40.408;17.282;2023-02-01T12:42:21;2.40;;;1.23;;
45564;SDS011;31280;40.408;17.282;2023-02-01T12:45:06;5.13;;;2.05;;
45564;SDS011;31280;40.408;17.282;2023-02-01T12:47:41;2.67;;;1.63;;
45564;SDS011;31280;40.408;17.282;2023-02-01T12:52:48;4.40;;;1.70;;
45564;SDS011;31280;40.408;17.282;2023-02-01T13:00:52;2.85;;;1.73;;
45564;SDS011;31280;40.408;17.282;2023-02-01T13:15:16;9.88;;;1.90;;
45564;SDS011;31280;40.408;17.282;2023-02-01T13:17:47;3.10;;;1.63;;
45564;SDS011;31280;40.408;17.282;2023-02-01T13:20:31;16.73;;;3.42;;
45564;SDS011;31280;40.408;17.282;2023-02-01T13:23:23;3.85;;;1.52;;
45564;SDS011;31280;40.408;17.282;2023-02-01T13:25:51;2.08;;;1.30;;
45564;SDS011;31280;40.408;17.282;2023-02-01T13:36:20;5.85;;;1.60;;
45564;SDS011;31280;40.408;17.282;2023-02-01T13:44:25;2.53;;;1.30;;
45564;SDS011;31280;40.408;17.282;2023-02-01T13:46:51;4.87;;;1.37;;
45564;SDS011;31280;40.408;17.282;2023-02-01T13:49:26;12.43;;;2.15;;
45564;SDS011;31280;40.408;17.282;2023-02-01T13:51:54;3.30;;;2.22;;
45564;SDS011;31280;40.408;17.282;2023-02-01T13:54:27;3.20;;;2.00;;
45564;SDS011;31280;40.408;17.282;2023-02-01T13:56:58;3.92;;;2.00;;
45564;SDS011;31280;40.408;17.282;2023-02-01T14:05:03;2.13;;;1.45;;
45564;SDS011;31280;40.408;17.282;2023-02-01T14:07:36;3.10;;;1.70;;
45564;SDS011;31280;40.408;17.282;2023-02-01T14:13:11;3.75;;;1.88;;
45564;SDS011;31280;40.408;17.282;2023-02-01T14:15:39;5.80;;;3.30;;
45564;SDS011;31280;40.408;17.282;2023-02-01T14:24:12;3.13;;;1.67;;
45564;SDS011;31280;40.408;17.282;2023-02-01T14:26:46;9.48;;;1.98;;
45564;SDS011;31280;40.408;17.282;2023-02-01T14:34:30;21.38;;;6.03;;
45564;SDS011;31280;40.408;17.282;2023-02-01T14:36:58;31.23;;;3.80;;
45564;SDS011;31280;40.408;17.282;2023-02-01T14:39:35;5.10;;;1.80;;
45564;SDS011;31280;40.408;17.282;2023-02-01T14:47:48;3.35;;;1.70;;
45564;SDS011;31280;40.408;17.282;2023-02-01T14:50:57;1.80;;;1.38;;
45564;SDS011;31280;40.408;17.282;2023-02-01T14:55:45;5.30;;;1.48;;
45564;SDS011;31280;40.408;17.282;2023-02-01T15:01:17;2.88;;;1.70;;
45564;SDS011;31280;40.408;17.282;2023-02-01T15:06:27;7.30;;;2.00;;
45564;SDS011;31280;40.408;17.282;2023-02-01T15:09:00;6.78;;;3.08;;
45564;SDS011;31280;40.408;17.282;2023-02-01T15:14:32;5.32;;;2.67;;
45564;SDS011;31280;40.408;17.282;2023-02-01T15:17:23;4.32;;;2.60;;
45564;SDS011;31280;40.408;17.282;2023-02-01T15:20:12;5.22;;;2.63;;
45564;SDS011;31280;40.408;17.282;2023-02-01T15:22:40;3.70;;;2.67;;
45564;SDS011;31280;40.408;17.282;2023-02-01T15:25:28;7.78;;;2.83;;
45564;SDS011;31280;40.408;17.282;2023-02-01T15:27:54;8.02;;;4.05;;
45564;SDS011;31280;40.408;17.282;2023-02-01T15:30:25;10.57;;;3.90;;
45564;SDS011;31280;40.408;17.282;2023-02-01T15:43:21;17.02;;;7.03;;
45564;SDS011;31280;40.408;17.282;2023-02-01T15:45:47;17.20;;;7.72;;
45564;SDS011;31280;40.408;17.282;2023-02-01T15:48:16;9.55;;;5.88;;
45564;SDS011;31280;40.408;17.282;2023-02-01T15:50:48;10.95;;;6.25;;
45564;SDS011;31280;40.408;17.282;2023-02-01T15:53:15;9.55;;;5.38;;
45564;SDS011;31280;40.408;17.282;2023-02-01T15:55:45;13.73;;;6.72;;
45564;SDS011;31280;40.408;17.282;2023-02-01T15:58:20;12.70;;;6.97;;
45564;SDS011;31280;40.408;17.282;2023-02-01T16:00:50;26.27;;;14.52;;
45564;SDS011;31280;40.408;17.282;2023-02-01T16:03:25;21.15;;;12.23;;
45564;SDS011;31280;40.408;17.282;2023-02-01T16:06:06;19.83;;;10.75;;
45564;SDS011;31280;40.408;17.282;2023-02-01T16:08:34;15.63;;;10.68;;
45564;SDS011;31280;40.408;17.282;2023-02-01T16:13:33;12.05;;;7.43;;
45564;SDS011;31280;40.408;17.282;2023-02-01T16:15:59;11.48;;;7.35;;
45564;SDS011;31280;40.408;17.282;2023-02-01T16:18:25;11.30;;;6.93;;
45564;SDS011;31280;40.408;17.282;2023-02-01T16:20:51;10.77;;;7.35;;
45564;SDS011;31280;40.408;17.282;2023-02-01T16:23:16;13.82;;;5.75;;
45564;SDS011;31280;40.408;17.282;2023-02-01T16:25:42;15.95;;;5.65;;
45564;SDS011;31280;40.408;17.282;2023-02-01T16:28:08;7.38;;;5.20;;
45564;SDS011;31280;40.408;17.282;2023-02-01T16:30:34;8.27;;;4.72;;
45564;SDS011;31280;40.408;17.282;2023-02-01T16:33:01;6.43;;;3.65;;
45564;SDS011;31280;40.408;17.282;2023-02-01T16:35:31;6.65;;;3.65;;
45564;SDS011;31280;40.408;17.282;2023-02-01T16:38:02;5.57;;;3.25;;
45564;SDS011;31280;40.408;17.282;2023-02-01T16:40:33;6.50;;;3.65;;
45564;SDS011;31280;40.408;17.282;2023-02-01T16:42:59;8.55;;;3.67;;
45564;SDS011;31280;40.408;17.282;2023-02-01T16:45:25;6.05;;;3.90;;
45564;SDS011;31280;40.408;17.282;2023-02-01T16:47:52;4.95;;;3.10;;
45564;SDS011;31280;40.408;17.282;2023-02-01T16:50:20;5.15;;;3.20;;
45564;SDS011;31280;40.408;17.282;2023-02-01T16:52:48;6.93;;;2.80;;
45564;SDS011;31280;40.408;17.282;2023-02-01T16:55:15;9.38;;;3.47;;
45564;SDS011;31280;40.408;17.282;2023-02-01T16:57:42;10.93;;;3.20;;
45564;SDS011;31280;40.408;17.282;2023-02-01T17:00:09;6.05;;;3.20;;
45564;SDS011;31280;40.408;17.282;2023-02-01T17:02:37;5.53;;;3.80;;
45564;SDS011;31280;40.408;17.282;2023-02-01T17:05:03;6.13;;;3.65;;
45564;SDS011;31280;40.408;17.282;2023-02-01T17:07:30;3.95;;;3.03;;
45564;SDS011;31280;40.408;17.282;2023-02-01T17:09:56;5.45;;;3.42;;
45564;SDS011;31280;40.408;17.282;2023-02-01T17:12:25;6.07;;;2.88;;
45564;SDS011;31280;40.408;17.282;2023-02-01T17:14:56;6.50;;;3.25;;
45564;SDS011;31280;40.408;17.282;2023-02-01T17:17:23;7.35;;;3.30;;
45564;SDS011;31280;40.408;17.282;2023-02-01T17:19:51;7.13;;;3.40;;
45564;SDS011;31280;40.408;17.282;2023-02-01T17:22:21;4.35;;;2.95;;
45564;SDS011;31280;40.408;17.282;2023-02-01T17:24:48;5.72;;;3.63;;
45564;SDS011;31280;40.408;17.282;2023-02-01T17:27:15;5.97;;;3.88;;
45564;SDS011;31280;40.408;17.282;2023-02-01T17:29:42;6.68;;;4.38;;
45564;SDS011;31280;40.408;17.282;2023-02-01T17:32:18;8.00;;;4.55;;
45564;SDS011;31280;40.408;17.282;2023-02-01T17:34:46;7.43;;;4.07;;
45564;SDS011;31280;40.408;17.282;2023-02-01T17:37:31;9.63;;;6.00;;
45564;SDS011;31280;40.408;17.282;2023-02-01T17:39:59;9.25;;;6.05;;
45564;SDS011;31280;40.408;17.282;2023-02-01T17:42:26;10.82;;;5.40;;
45564;SDS011;31280;40.408;17.282;2023-02-01T17:45:00;13.02;;;4.82;;
45564;SDS011;31280;40.408;17.282;2023-02-01T17:47:36;12.27;;;5.25;;
45564;SDS011;31280;40.408;17.282;2023-02-01T17:50:03;11.02;;;5.32;;
45564;SDS011;31280;40.408;17.282;2023-02-01T17:52:29;12.98;;;5.38;;
45564;SDS011;31280;40.408;17.282;2023-02-01T17:54:54;14.13;;;5.85;;
45564;SDS011;31280;40.408;17.282;2023-02-01T17:57:20;14.45;;;5.63;;
45564;SDS011;31280;40.408;17.282;2023-02-01T17:59:46;11.65;;;5.22;;
45564;SDS011;31280;40.408;17.282;2023-02-01T18:02:19;9.98;;;4.95;;
45564;SDS011;31280;40.408;17.282;2023-02-01T18:04:47;13.77;;;5.30;;